Time;durP1;ratioP1;P1;durP2;ratioP2;P2;SDS_P1;SDS_P2;PMS_P1;PMS_P2;Temp;Humidity;BMP_temperature;BMP_pressure;BME280_temperature;BME280_humidity;BME280_pressure;Samples;Min_cycle;Max_cycle;Signal;HPM_P1;HPM_P2
2021/07/13 00:02:19;;;;;;;;;;;21.30;76.20;;;;;;5098010;28;19904;-36
2021/07/13 00:04:44;;;;;;;;;;;21.20;75.80;;;;;;5079890;28;20314;-36
2021/07/13 00:07:10;;;;;;;;;;;21.20;76.00;;;;;;5079697;28;19915;-36
2021/07/13 00:09:36;;;;;;;;;;;21.20;75.90;;;;;;5097990;28;19911;-37
2021/07/13 00:12:01;;;;;;;;;;;21.30;75.60;;;;;;5079693;28;20332;-37
2021/07/13 00:14:27;;;;;;;;;;;21.20;75.00;;;;;;5097770;28;20317;-36
2021/07/13 00:16:53;;;;;;;;;;;21.30;74.80;;;;;;5097747;28;19983;-36
2021/07/13 00:19:19;;;;;;;;;;;21.30;74.70;;;;;;5097687;28;19938;-35
2021/07/13 00:21:44;;;;;;;;;;;21.30;74.80;;;;;;5097877;28;19908;-35
2021/07/13 00:24:10;;;;;;;;;;;21.30;73.80;;;;;;5098174;28;19995;-35
2021/07/13 00:26:36;;;;;;;;;;;21.30;75.00;;;;;;5079455;28;19904;-35
2021/07/13 00:29:03;;;;;;;;;;;21.30;75.30;;;;;;5097714;28;19911;-35
2021/07/13 00:31:28;;;;;;;;;;;21.20;76.00;;;;;;5097445;28;20247;-35
2021/07/13 00:33:54;;;;;;;;;;;21.10;76.30;;;;;;5097476;28;19904;-37
2021/07/13 00:36:19;;;;;;;;;;;21.20;75.30;;;;;;5097369;28;19904;-36
2021/07/13 00:38:45;;;;;;;;;;;21.30;75.80;;;;;;5097253;28;19945;-36
2021/07/13 00:41:10;;;;;;;;;;;21.30;75.80;;;;;;5097182;28;19908;-36
2021/07/13 00:43:36;;;;;;;;;;;21.20;75.80;;;;;;5097171;28;19904;-36
2021/07/13 00:46:03;;;;;;;;;;;21.30;76.50;;;;;;5097430;28;20306;-36
2021/07/13 00:48:29;;;;;;;;;;;21.10;76.60;;;;;;5097117;28;19908;-35
2021/07/13 00:50:57;;;;;;;;;;;21.10;76.80;;;;;;5097651;28;19904;-36
2021/07/13 00:53:23;;;;;;;;;;;21.00;77.00;;;;;;5097151;28;19908;-36
2021/07/13 00:55:49;;;;;;;;;;;20.90;77.10;;;;;;5078871;28;19973;-36
2021/07/13 00:58:14;;;;;;;;;;;20.90;76.60;;;;;;5097208;28;19904;-36
2021/07/13 01:00:40;;;;;;;;;;;20.90;76.70;;;;;;5095502;28;20271;-36
2021/07/13 01:03:06;;;;;;;;;;;20.90;76.80;;;;;;5096862;28;19949;-36
2021/07/13 01:05:33;;;;;;;;;;;20.70;77.10;;;;;;5096654;28;19904;-35
2021/07/13 01:08:31;;;;;;;;;;;20.70;77.50;;;;;;5096839;28;19943;-36
2021/07/13 01:11:14;;;;;;;;;;;20.60;77.60;;;;;;5041182;28;19904;-36
2021/07/13 01:13:52;;;;;;;;;;;20.90;76.80;;;;;;5096726;28;19912;-36
2021/07/13 01:16:21;;;;;;;;;;;20.80;76.90;;;;;;5096624;28;19957;-35
2021/07/13 01:18:54;;;;;;;;;;;20.70;77.60;;;;;;5096628;28;19910;-36
2021/07/13 01:21:27;;;;;;;;;;;20.70;78.10;;;;;;5096585;28;19904;-36
2021/07/13 01:23:52;;;;;;;;;;;20.60;78.10;;;;;;5096532;28;19995;-35
2021/07/13 01:26:22;;;;;;;;;;;20.50;79.10;;;;;;5096468;28;19911;-36
2021/07/13 01:28:52;;;;;;;;;;;20.80;78.00;;;;;;5096141;28;19926;-35
2021/07/13 01:31:18;;;;;;;;;;;20.80;78.30;;;;;;5096428;28;20371;-35
2021/07/13 01:33:52;;;;;;;;;;;21.00;77.70;;;;;;5096137;28;19903;-36
2021/07/13 01:36:27;;;;;;;;;;;20.60;79.10;;;;;;5097110;28;19916;-37
2021/07/13 01:38:54;;;;;;;;;;;20.70;79.00;;;;;;5096142;28;19904;-37
2021/07/13 01:41:22;;;;;;;;;;;20.70;78.70;;;;;;5078435;28;19904;-37
2021/07/13 01:43:48;;;;;;;;;;;20.50;79.70;;;;;;5096027;28;19948;-37
2021/07/13 01:46:15;;;;;;;;;;;20.50;79.80;;;;;;5096003;28;19908;-37
2021/07/13 01:48:43;;;;;;;;;;;20.50;79.60;;;;;;5096232;28;20263;-37
2021/07/13 01:51:09;;;;;;;;;;;20.50;79.70;;;;;;5096294;28;19904;-37
2021/07/13 01:53:35;;;;;;;;;;;20.50;80.10;;;;;;5077754;28;20278;-37
2021/07/13 01:56:01;;;;;;;;;;;20.30;80.90;;;;;;5095850;28;20283;-37
2021/07/13 01:58:28;;;;;;;;;;;20.20;81.50;;;;;;5095987;28;19911;-36
2021/07/13 02:00:55;;;;;;;;;;;20.10;81.80;;;;;;5096319;28;19904;-37
2021/07/13 02:03:24;;;;;;;;;;;20.20;81.80;;;;;;5095628;28;19908;-37
2021/07/13 02:05:51;;;;;;;;;;;20.10;81.90;;;;;;5095626;28;19911;-37
2021/07/13 02:08:18;;;;;;;;;;;20.10;81.60;;;;;;5095782;28;19904;-36
2021/07/13 02:10:44;;;;;;;;;;;20.10;81.90;;;;;;5095524;28;19911;-37
2021/07/13 02:13:10;;;;;;;;;;;20.10;81.90;;;;;;5095519;28;19908;-37
2021/07/13 02:15:36;;;;;;;;;;;20.30;80.70;;;;;;5095358;28;19904;-37
2021/07/13 02:18:02;;;;;;;;;;;20.30;80.50;;;;;;5095629;28;19911;-37
2021/07/13 02:20:28;;;;;;;;;;;20.30;79.80;;;;;;5095280;28;20352;-37
2021/07/13 02:22:53;;;;;;;;;;;20.40;79.10;;;;;;5095538;28;19991;-37
2021/07/13 02:25:19;;;;;;;;;;;20.50;78.00;;;;;;5095543;28;19904;-37
2021/07/13 02:27:52;;;;;;;;;;;20.60;77.80;;;;;;5095087;28;19919;-37
2021/07/13 02:30:18;;;;;;;;;;;20.70;77.40;;;;;;5095480;28;19957;-37
2021/07/13 02:32:50;;;;;;;;;;;20.70;77.10;;;;;;5076847;28;19912;-38
2021/07/13 02:35:17;;;;;;;;;;;20.60;76.50;;;;;;5094986;28;19961;-37
2021/07/13 02:37:45;;;;;;;;;;;20.60;76.20;;;;;;5095032;28;20002;-37
2021/07/13 02:40:11;;;;;;;;;;;20.60;75.90;;;;;;5095236;28;19915;-37
2021/07/13 02:42:37;;;;;;;;;;;20.60;76.00;;;;;;5095216;28;19904;-37
2021/07/13 02:45:04;;;;;;;;;;;20.50;76.00;;;;;;5094844;28;19956;-38
2021/07/13 02:47:30;;;;;;;;;;;20.40;76.40;;;;;;5095114;28;20267;-37
2021/07/13 02:49:56;;;;;;;;;;;20.50;75.80;;;;;;5095053;28;19904;-36
2021/07/13 02:52:24;;;;;;;;;;;20.40;77.10;;;;;;5095021;28;19957;-37
2021/07/13 02:54:54;;;;;;;;;;;20.50;77.10;;;;;;5094959;28;20244;-36
2021/07/13 02:57:21;;;;;;;;;;;20.50;77.10;;;;;;5095236;28;20339;-39
2021/07/13 02:59:47;;;;;;;;;;;20.50;77.20;;;;;;5094659;28;19999;-36
2021/07/13 03:02:13;;;;;;;;;;;20.50;77.10;;;;;;5094872;28;19988;-37
2021/07/13 03:04:39;;;;;;;;;;;20.50;77.40;;;;;;5094550;28;19904;-36
2021/07/13 03:07:05;;;;;;;;;;;20.60;76.60;;;;;;5094811;28;19911;-36
2021/07/13 03:09:31;;;;;;;;;;;20.50;77.10;;;;;;5094525;28;19908;-36
2021/07/13 03:11:56;;;;;;;;;;;20.50;77.30;;;;;;5094472;28;19921;-37
2021/07/13 03:14:23;;;;;;;;;;;20.50;77.80;;;;;;5094656;28;19904;-37
2021/07/13 03:16:49;;;;;;;;;;;20.20;78.90;;;;;;5094310;28;19949;-37
2021/07/13 03:19:15;;;;;;;;;;;20.20;78.90;;;;;;5076609;28;19908;-36
2021/07/13 03:21:44;;;;;;;;;;;20.40;78.20;;;;;;5094282;28;20363;-35
2021/07/13 03:24:10;;;;;;;;;;;20.40;77.80;;;;;;5093648;28;19905;-36
2021/07/13 03:26:38;;;;;;;;;;;20.60;77.20;;;;;;5094259;28;19904;-36
2021/07/13 03:29:03;;;;;;;;;;;20.40;77.60;;;;;;5094432;28;19904;-36
2021/07/13 03:31:30;;;;;;;;;;;20.50;77.70;;;;;;5094686;28;19912;-37
2021/07/13 03:33:56;;;;;;;;;;;20.60;77.80;;;;;;5093873;28;19910;-36
2021/07/13 03:36:22;;;;;;;;;;;20.60;77.70;;;;;;5094450;28;19911;-36
2021/07/13 03:38:47;;;;;;;;;;;20.40;78.80;;;;;;5094868;28;19912;-36
2021/07/13 03:41:13;;;;;;;;;;;20.30;79.40;;;;;;5094012;28;20363;-37
2021/07/13 03:43:39;;;;;;;;;;;20.50;79.00;;;;;;5094028;28;19998;-36
2021/07/13 03:46:04;;;;;;;;;;;20.30;79.50;;;;;;5075909;28;19953;-36
2021/07/13 03:48:30;;;;;;;;;;;20.30;79.40;;;;;;5093915;28;19939;-36
2021/07/13 03:50:56;;;;;;;;;;;20.40;79.20;;;;;;5093935;28;19908;-37
2021/07/13 03:53:21;;;;;;;;;;;20.30;79.40;;;;;;5075836;28;20278;-37
2021/07/13 03:55:47;;;;;;;;;;;20.40;79.60;;;;;;5094629;28;20386;-37
2021/07/13 03:58:12;;;;;;;;;;;20.30;79.70;;;;;;5075596;28;19999;-37
2021/07/13 04:00:38;;;;;;;;;;;20.30;80.10;;;;;;5094007;28;19935;-37
2021/07/13 04:03:03;;;;;;;;;;;20.40;80.10;;;;;;5094043;28;19904;-36
2021/07/13 04:05:29;;;;;;;;;;;20.50;79.40;;;;;;5093834;28;20017;-36
2021/07/13 04:07:55;;;;;;;;;;;20.50;79.60;;;;;;5093767;28;19953;-36
2021/07/13 04:10:21;;;;;;;;;;;20.40;79.80;;;;;;5093948;28;20275;-37
2021/07/13 04:12:46;;;;;;;;;;;20.40;79.40;;;;;;5093836;28;19914;-45
2021/07/13 04:15:12;;;;;;;;;;;20.40;80.10;;;;;;5093630;28;20256;-36
2021/07/13 04:17:38;;;;;;;;;;;20.30;80.30;;;;;;5093904;28;20275;-36
2021/07/13 04:20:04;;;;;;;;;;;20.30;80.50;;;;;;5093732;28;19904;-36
2021/07/13 04:22:30;;;;;;;;;;;20.40;79.50;;;;;;5093864;28;19918;-37
2021/07/13 04:24:55;;;;;;;;;;;20.30;80.00;;;;;;5093784;28;20405;-36
2021/07/13 04:27:21;;;;;;;;;;;20.20;81.10;;;;;;5093484;28;20332;-36
2021/07/13 04:29:46;;;;;;;;;;;20.10;80.80;;;;;;5094260;28;19904;-36
2021/07/13 04:32:12;;;;;;;;;;;20.10;81.70;;;;;;5094077;28;20261;-37
2021/07/13 04:34:37;;;;;;;;;;;20.10;81.50;;;;;;5093896;28;19916;-37
2021/07/13 04:37:03;;;;;;;;;;;20.20;81.50;;;;;;5097285;28;20378;-36
2021/07/13 04:39:28;;;;;;;;;;;20.10;81.90;;;;;;5097375;28;19904;-36
2021/07/13 04:41:54;;;;;;;;;;;20.30;81.20;;;;;;5097160;28;19927;-36
2021/07/13 04:44:19;;;;;;;;;;;20.10;82.50;;;;;;5097093;28;19993;-36
2021/07/13 04:46:45;;;;;;;;;;;20.20;82.20;;;;;;5097242;28;20374;-36
2021/07/13 04:49:11;;;;;;;;;;;20.00;82.90;;;;;;5097295;28;19908;-36
2021/07/13 04:51:37;;;;;;;;;;;20.00;82.90;;;;;;5096884;28;19926;-36
2021/07/13 04:54:03;;;;;;;;;;;20.00;82.90;;;;;;5096909;28;20351;-36
2021/07/13 04:56:28;;;;;;;;;;;20.00;83.30;;;;;;5096819;28;19904;-36
2021/07/13 04:58:57;;;;;;;;;;;19.90;84.30;;;;;;5097317;28;20317;-36
2021/07/13 05:01:22;;;;;;;;;;;19.80;84.80;;;;;;5096803;28;19904;-36
2021/07/13 05:03:48;;;;;;;;;;;19.90;84.20;;;;;;5096764;28;19910;-36
2021/07/13 05:06:14;;;;;;;;;;;20.00;84.50;;;;;;5096759;28;19911;-36
2021/07/13 05:08:40;;;;;;;;;;;20.00;83.90;;;;;;5097021;28;20271;-36
2021/07/13 05:11:06;;;;;;;;;;;19.80;84.10;;;;;;5096631;28;19904;-36
2021/07/13 05:13:32;;;;;;;;;;;19.90;84.20;;;;;;5096553;28;19911;-37
2021/07/13 05:15:58;;;;;;;;;;;19.90;83.90;;;;;;5096563;28;20356;-36
2021/07/13 05:18:23;;;;;;;;;;;20.00;83.70;;;;;;5096686;28;19911;-36
2021/07/13 05:20:54;;;;;;;;;;;20.00;83.90;;;;;;5096324;28;19904;-36
2021/07/13 05:23:19;;;;;;;;;;;20.20;84.10;;;;;;5078384;28;20351;-36
2021/07/13 05:25:45;;;;;;;;;;;20.10;84.60;;;;;;5096297;28;19904;-36
2021/07/13 05:28:11;;;;;;;;;;;20.10;85.20;;;;;;5078190;28;19912;-36
2021/07/13 05:30:40;;;;;;;;;;;20.20;84.60;;;;;;5096198;28;19965;-36
2021/07/13 05:33:06;;;;;;;;;;;20.30;84.30;;;;;;5096427;28;19969;-36
2021/07/13 05:35:32;;;;;;;;;;;20.20;84.70;;;;;;5095970;28;19920;-36
2021/07/13 05:37:58;;;;;;;;;;;20.10;85.50;;;;;;5096070;28;19903;-36
2021/07/13 05:40:24;;;;;;;;;;;20.20;85.20;;;;;;5096301;28;20283;-36
2021/07/13 05:42:50;;;;;;;;;;;20.00;86.00;;;;;;5077820;28;19911;-36
2021/07/13 05:45:15;;;;;;;;;;;19.90;87.00;;;;;;5095747;28;19904;-36
2021/07/13 05:47:41;;;;;;;;;;;20.00;87.00;;;;;;5095265;28;19904;-36
2021/07/13 05:50:07;;;;;;;;;;;19.90;87.10;;;;;;5095680;28;19957;-36
2021/07/13 05:52:33;;;;;;;;;;;19.90;87.70;;;;;;5095814;28;19908;-37
2021/07/13 05:54:59;;;;;;;;;;;19.90;87.80;;;;;;5095887;28;20295;-36
2021/07/13 05:57:26;;;;;;;;;;;19.90;88.00;;;;;;5095849;28;19927;-36
2021/07/13 05:59:52;;;;;;;;;;;20.00;88.30;;;;;;5095520;28;20355;-36
2021/07/13 06:02:17;;;;;;;;;;;20.00;88.30;;;;;;5095266;28;19949;-36
2021/07/13 06:04:43;;;;;;;;;;;20.00;88.40;;;;;;5095422;28;19950;-36
2021/07/13 06:07:08;;;;;;;;;;;19.90;89.10;;;;;;5095443;28;20279;-40
2021/07/13 06:09:34;;;;;;;;;;;20.10;88.10;;;;;;5095719;28;19939;-36
2021/07/13 06:11:59;;;;;;;;;;;20.00;88.50;;;;;;5095450;28;19915;-35
2021/07/13 06:14:25;;;;;;;;;;;19.90;89.40;;;;;;5095128;28;19911;-36
2021/07/13 06:16:51;;;;;;;;;;;20.00;89.30;;;;;;5095519;28;19912;-37
2021/07/13 06:19:16;;;;;;;;;;;20.00;89.70;;;;;;5076984;28;19935;-37
2021/07/13 06:21:42;;;;;;;;;;;20.00;89.70;;;;;;5095032;28;19904;-37
2021/07/13 06:24:08;;;;;;;;;;;19.90;89.60;;;;;;5095064;28;20387;-37
2021/07/13 06:26:33;;;;;;;;;;;19.80;89.80;;;;;;5094941;28;20401;-37
2021/07/13 06:28:59;;;;;;;;;;;19.80;90.10;;;;;;5094808;28;20379;-37
2021/07/13 06:31:25;;;;;;;;;;;19.80;89.60;;;;;;5094380;28;19903;-37
2021/07/13 06:33:50;;;;;;;;;;;19.70;89.30;;;;;;5095402;28;19907;-37
2021/07/13 06:36:16;;;;;;;;;;;19.70;89.30;;;;;;5094452;28;19953;-37
2021/07/13 06:38:41;;;;;;;;;;;19.70;89.90;;;;;;5094355;28;19904;-37
2021/07/13 06:41:07;;;;;;;;;;;19.60;89.60;;;;;;5094373;28;20321;-37
2021/07/13 06:43:32;;;;;;;;;;;19.60;89.80;;;;;;5094293;28;19904;-37
2021/07/13 06:45:58;;;;;;;;;;;19.50;89.90;;;;;;5094290;28;20336;-37
2021/07/13 06:48:24;;;;;;;;;;;19.60;89.80;;;;;;5093957;28;19904;-37
2021/07/13 06:50:50;;;;;;;;;;;19.50;90.50;;;;;;5076998;28;19904;-38
2021/07/13 06:53:16;;;;;;;;;;;19.60;90.10;;;;;;5095540;28;19927;-37
2021/07/13 06:55:42;;;;;;;;;;;19.70;90.00;;;;;;5076332;28;19904;-36
2021/07/13 06:58:07;;;;;;;;;;;19.70;89.40;;;;;;5093495;28;19911;-37
2021/07/13 07:00:33;;;;;;;;;;;19.70;89.50;;;;;;5094210;28;19904;-42
2021/07/13 07:02:58;;;;;;;;;;;19.60;89.70;;;;;;5094367;28;19953;-40
2021/07/13 07:05:24;;;;;;;;;;;19.70;90.20;;;;;;5093829;28;19904;-36
2021/07/13 07:07:50;;;;;;;;;;;19.60;89.90;;;;;;5094028;28;20377;-36
2021/07/13 07:10:16;;;;;;;;;;;19.60;90.10;;;;;;5093698;28;20304;-37
2021/07/13 07:12:43;;;;;;;;;;;19.60;90.40;;;;;;5075338;28;19916;-36
2021/07/13 07:15:08;;;;;;;;;;;19.60;89.80;;;;;;5093622;28;19904;-37
2021/07/13 07:17:41;;;;;;;;;;;19.60;90.20;;;;;;5075516;28;19911;-37
2021/07/13 07:20:07;;;;;;;;;;;19.50;90.60;;;;;;5093677;28;20416;-38
2021/07/13 07:22:33;;;;;;;;;;;19.50;90.70;;;;;;5094132;28;19908;-38
2021/07/13 07:24:58;;;;;;;;;;;19.60;90.90;;;;;;5093583;28;19904;-36
2021/07/13 07:27:24;;;;;;;;;;;19.60;90.70;;;;;;5093267;28;19904;-36
2021/07/13 07:29:49;;;;;;;;;;;19.70;90.70;;;;;;5093170;28;19910;-36
2021/07/13 07:32:15;;;;;;;;;;;19.70;90.80;;;;;;5093498;28;19908;-37
2021/07/13 07:34:40;;;;;;;;;;;19.70;90.70;;;;;;5093001;28;20279;-37
2021/07/13 07:37:06;;;;;;;;;;;19.70;91.10;;;;;;5075223;28;19904;-38
2021/07/13 07:39:31;;;;;;;;;;;19.80;91.00;;;;;;5074910;28;20045;-37
2021/07/13 07:41:57;;;;;;;;;;;19.80;90.90;;;;;;5075146;28;20274;-37
2021/07/13 07:44:23;;;;;;;;;;;19.80;90.00;;;;;;5075297;28;19904;-37
2021/07/13 07:46:50;;;;;;;;;;;19.90;89.90;;;;;;5076048;28;19904;-37
2021/07/13 07:49:16;;;;;;;;;;;20.00;90.10;;;;;;5093278;28;19912;-37
2021/07/13 07:51:42;;;;;;;;;;;20.00;90.40;;;;;;5074985;28;19904;-38
2021/07/13 07:54:09;;;;;;;;;;;20.20;90.10;;;;;;5075112;28;19912;-38
2021/07/13 07:56:35;;;;;;;;;;;20.20;89.60;;;;;;5093960;28;19904;-38
2021/07/13 07:59:02;;;;;;;;;;;20.40;89.00;;;;;;5075202;28;20209;-38
2021/07/13 08:01:29;;;;;;;;;;;20.80;88.10;;;;;;5075149;28;19911;-38
2021/07/13 08:03:55;;;;;;;;;;;20.70;88.20;;;;;;5058382;28;20013;-37
2021/07/13 08:06:20;;;;;;;;;;;20.70;88.00;;;;;;5075788;28;19918;-37
2021/07/13 08:08:46;;;;;;;;;;;20.70;87.80;;;;;;5093352;28;19910;-37
2021/07/13 08:11:11;;;;;;;;;;;20.60;88.50;;;;;;5096533;28;19904;-37
2021/07/13 08:13:37;;;;;;;;;;;20.80;87.50;;;;;;5097621;28;20362;-38
2021/07/13 08:16:03;;;;;;;;;;;20.90;87.10;;;;;;5097177;28;19911;-37
2021/07/13 08:18:28;;;;;;;;;;;20.80;87.80;;;;;;5097148;28;19904;-38
2021/07/13 08:20:54;;;;;;;;;;;20.80;86.80;;;;;;5097144;28;19911;-38
2021/07/13 08:23:19;;;;;;;;;;;20.90;87.30;;;;;;5096840;28;19969;-38
2021/07/13 08:25:45;;;;;;;;;;;20.80;88.10;;;;;;5097241;28;19904;-38
2021/07/13 08:28:11;;;;;;;;;;;20.90;87.00;;;;;;5097392;28;19931;-37
2021/07/13 08:30:36;;;;;;;;;;;20.80;87.60;;;;;;5098476;28;20013;-37
2021/07/13 08:33:05;;;;;;;;;;;20.70;87.50;;;;;;5098358;28;19908;-38
2021/07/13 08:35:31;;;;;;;;;;;21.00;87.40;;;;;;5080149;28;19920;-38
2021/07/13 08:37:57;;;;;;;;;;;21.30;85.50;;;;;;5079643;28;19904;-37
2021/07/13 08:40:24;;;;;;;;;;;21.30;85.90;;;;;;5098217;28;20270;-37
2021/07/13 08:42:50;;;;;;;;;;;21.60;85.30;;;;;;5062159;28;19911;-37
2021/07/13 08:45:17;;;;;;;;;;;21.70;84.40;;;;;;5096761;28;19904;-36
2021/07/13 08:47:47;;;;;;;;;;;21.60;84.90;;;;;;5078664;28;19991;-38
2021/07/13 08:50:14;;;;;;;;;;;21.70;84.90;;;;;;5097313;28;19999;-37
2021/07/13 08:52:40;;;;;;;;;;;21.70;84.60;;;;;;5097305;28;19908;-37
2021/07/13 08:55:06;;;;;;;;;;;21.70;84.80;;;;;;5078567;28;19965;-37
2021/07/13 08:57:32;;;;;;;;;;;21.80;84.00;;;;;;5096192;28;19908;-37
2021/07/13 08:59:58;;;;;;;;;;;22.10;83.70;;;;;;5096843;28;19911;-37
2021/07/13 09:02:23;;;;;;;;;;;21.90;82.50;;;;;;5096894;28;20356;-36
2021/07/13 09:04:49;;;;;;;;;;;21.70;82.90;;;;;;5078221;28;20366;-37
2021/07/13 09:07:17;;;;;;;;;;;21.50;83.70;;;;;;5096551;28;19927;-36
2021/07/13 09:09:47;;;;;;;;;;;21.50;84.30;;;;;;5098009;28;19904;-38
2021/07/13 09:12:17;;;;;;;;;;;21.40;84.90;;;;;;5097182;28;19908;-39
2021/07/13 09:14:46;;;;;;;;;;;21.50;84.20;;;;;;5096757;28;20377;-40
2021/07/13 09:17:28;;;;;;;;;;;21.30;84.60;;;;;;5078861;28;19904;-37
2021/07/13 09:20:05;;;;;;;;;;;21.50;83.60;;;;;;5078033;28;19908;-39
2021/07/13 09:22:32;;;;;;;;;;;21.60;84.00;;;;;;5096317;28;19908;-37
2021/07/13 09:24:58;;;;;;;;;;;21.60;83.70;;;;;;5077767;28;19904;-37
2021/07/13 09:27:24;;;;;;;;;;;21.80;83.50;;;;;;5096447;28;20397;-39
2021/07/13 09:29:51;;;;;;;;;;;21.90;82.00;;;;;;5096730;28;19904;-38
2021/07/13 09:32:17;;;;;;;;;;;22.10;81.90;;;;;;5095383;28;19926;-38
2021/07/13 09:34:45;;;;;;;;;;;22.40;79.80;;;;;;5095477;28;19916;-37
2021/07/13 09:37:20;;;;;;;;;;;22.30;80.20;;;;;;5095424;28;19930;-38
2021/07/13 09:39:59;;;;;;;;;;;22.60;79.70;;;;;;5095764;28;19911;-38
2021/07/13 09:42:26;;;;;;;;;;;22.70;79.50;;;;;;5077280;28;19910;-37
2021/07/13 09:44:52;;;;;;;;;;;22.80;79.30;;;;;;5095506;28;19908;-41
2021/07/13 09:47:27;;;;;;;;;;;22.90;79.40;;;;;;5095965;28;20249;-41
2021/07/13 09:49:53;;;;;;;;;;;23.20;79.30;;;;;;5077517;28;19960;-38
2021/07/13 09:52:22;;;;;;;;;;;22.80;78.20;;;;;;5076666;28;19908;-38
2021/07/13 09:54:48;;;;;;;;;;;22.60;78.70;;;;;;5095125;28;20016;-37
2021/07/13 09:57:18;;;;;;;;;;;22.50;78.80;;;;;;5095467;28;19925;-37
2021/07/13 09:59:45;;;;;;;;;;;22.70;78.50;;;;;;5095098;28;19912;-37
2021/07/13 10:02:11;;;;;;;;;;;22.70;78.80;;;;;;5095098;28;20397;-37
2021/07/13 10:04:37;;;;;;;;;;;22.90;78.80;;;;;;5095716;28;19904;-37
2021/07/13 10:07:04;;;;;;;;;;;23.20;77.60;;;;;;5076897;28;19927;-38
2021/07/13 10:09:31;;;;;;;;;;;23.70;76.00;;;;;;5095964;28;20348;-42
2021/07/13 10:11:57;;;;;;;;;;;24.40;73.60;;;;;;5094913;28;20008;-36
2021/07/13 10:14:23;;;;;;;;;;;25.10;70.20;;;;;;5095091;28;19908;-37
2021/07/13 10:16:50;;;;;;;;;;;25.50;68.70;;;;;;5095332;28;20003;-36
2021/07/13 10:19:15;;;;;;;;;;;24.80;69.00;;;;;;5094769;28;19949;-36
2021/07/13 10:21:44;;;;;;;;;;;24.80;70.00;;;;;;5076745;28;19911;-37
2021/07/13 10:24:10;;;;;;;;;;;24.70;69.20;;;;;;5094916;28;19904;-37
2021/07/13 10:26:43;;;;;;;;;;;24.40;70.80;;;;;;5094607;28;20264;-36
2021/07/13 10:29:27;;;;;;;;;;;24.10;71.30;;;;;;5094449;28;19977;-37
2021/07/13 10:31:53;;;;;;;;;;;23.70;73.50;;;;;;5094311;28;20343;-37
2021/07/13 10:34:38;;;;;;;;;;;23.90;73.60;;;;;;5059709;28;19969;-36
2021/07/13 10:37:37;;;;;;;;;;;24.20;72.50;;;;;;5094375;28;19947;-38
2021/07/13 10:40:05;;;;;;;;;;;24.30;70.60;;;;;;5040003;28;20236;-37
2021/07/13 10:42:40;;;;;;;;;;;24.30;70.10;;;;;;5095489;28;19908;-38
2021/07/13 10:45:19;;;;;;;;;;;24.30;70.80;;;;;;5077647;28;19911;-38
2021/07/13 10:48:01;;;;;;;;;;;24.00;71.10;;;;;;5094362;28;19926;-37
2021/07/13 10:50:27;;;;;;;;;;;24.10;70.50;;;;;;5095176;28;19904;-36
2021/07/13 10:53:04;;;;;;;;;;;24.30;70.80;;;;;;5095010;28;19907;-37
2021/07/13 10:55:30;;;;;;;;;;;24.60;69.60;;;;;;5094773;28;20243;-36
2021/07/13 10:58:11;;;;;;;;;;;24.90;68.70;;;;;;5094093;28;19998;-37
2021/07/13 11:03:29;;;;;;;;;;;24.30;69.40;;;;;;5094238;28;20351;-37
2021/07/13 11:05:56;;;;;;;;;;;24.30;70.20;;;;;;5075678;28;19904;-37
2021/07/13 11:08:52;;;;;;;;;;;24.40;70.10;;;;;;5093733;28;19908;-37
2021/07/13 11:11:21;;;;;;;;;;;24.40;69.90;;;;;;5093988;28;19949;-36
2021/07/13 11:13:46;;;;;;;;;;;24.20;69.90;;;;;;5094227;28;19908;-36
2021/07/13 11:16:13;;;;;;;;;;;24.20;70.00;;;;;;5094161;28;19953;-37
2021/07/13 11:18:39;;;;;;;;;;;24.50;69.30;;;;;;5095328;28;19904;-38
2021/07/13 11:21:19;;;;;;;;;;;24.70;68.50;;;;;;5075712;28;20011;-36
2021/07/13 11:23:46;;;;;;;;;;;25.10;67.10;;;;;;5093542;28;19904;-35
2021/07/13 11:26:12;;;;;;;;;;;25.50;66.20;;;;;;5093610;28;19904;-37
2021/07/13 11:28:38;;;;;;;;;;;25.30;66.30;;;;;;5094702;28;19904;-37
2021/07/13 11:31:04;;;;;;;;;;;25.50;67.40;;;;;;5093717;28;20301;-37
2021/07/13 11:33:30;;;;;;;;;;;25.30;67.10;;;;;;5093743;28;19912;-37
2021/07/13 11:35:56;;;;;;;;;;;25.10;67.80;;;;;;5093763;28;19970;-37
2021/07/13 11:38:26;;;;;;;;;;;25.10;68.30;;;;;;5093648;28;19982;-37
2021/07/13 11:41:08;;;;;;;;;;;25.10;68.50;;;;;;5093760;28;20344;-37
2021/07/13 11:43:33;;;;;;;;;;;24.70;68.90;;;;;;5093656;28;20343;-36
2021/07/13 11:46:17;;;;;;;;;;;24.30;70.40;;;;;;5092959;28;19904;-37
2021/07/13 11:48:56;;;;;;;;;;;24.40;70.30;;;;;;5093503;28;19935;-37
2021/07/13 11:51:29;;;;;;;;;;;24.20;70.60;;;;;;5093388;28;19968;-37
2021/07/13 11:53:59;;;;;;;;;;;23.80;71.90;;;;;;5093146;28;20014;-37
2021/07/13 11:56:27;;;;;;;;;;;23.90;72.10;;;;;;5092850;28;19904;-36
2021/07/13 11:58:53;;;;;;;;;;;24.10;71.50;;;;;;5093245;28;20324;-37
2021/07/13 12:01:23;;;;;;;;;;;24.10;71.60;;;;;;5093451;28;19911;-37
2021/07/13 12:03:54;;;;;;;;;;;24.10;71.40;;;;;;5093667;28;20347;-38
2021/07/13 12:06:23;;;;;;;;;;;24.00;72.60;;;;;;5093351;28;19904;-38
2021/07/13 12:08:53;;;;;;;;;;;24.20;71.80;;;;;;5075117;28;19904;-37
2021/07/13 12:11:21;;;;;;;;;;;23.90;72.60;;;;;;5093323;28;20351;-38
2021/07/13 12:13:46;;;;;;;;;;;24.00;72.10;;;;;;5093175;28;20343;-36
2021/07/13 12:16:22;;;;;;;;;;;24.00;71.30;;;;;;5075872;28;19931;-37
2021/07/13 12:18:49;;;;;;;;;;;23.80;72.70;;;;;;5093715;28;20312;-36
2021/07/13 12:21:15;;;;;;;;;;;23.70;73.60;;;;;;5093362;28;19904;-36
2021/07/13 12:23:44;;;;;;;;;;;23.50;74.90;;;;;;5093684;28;19904;-37
2021/07/13 12:26:26;;;;;;;;;;;23.40;75.50;;;;;;5093572;28;19904;-37
2021/07/13 12:29:11;;;;;;;;;;;23.40;75.10;;;;;;5093423;28;19904;-37
2021/07/13 12:31:46;;;;;;;;;;;23.50;74.60;;;;;;5093000;28;19911;-37
2021/07/13 12:34:16;;;;;;;;;;;23.60;74.10;;;;;;5098319;28;19916;-37
2021/07/13 12:36:42;;;;;;;;;;;23.80;73.30;;;;;;5093217;28;19970;-36
2021/07/13 12:39:14;;;;;;;;;;;24.00;72.10;;;;;;5093333;28;19904;-38
2021/07/13 12:41:40;;;;;;;;;;;24.10;70.10;;;;;;5093430;28;19909;-38
2021/07/13 12:44:24;;;;;;;;;;;24.00;70.60;;;;;;5092708;28;19919;-37
2021/07/13 12:46:49;;;;;;;;;;;24.20;70.50;;;;;;5093383;28;19911;-37
2021/07/13 12:49:15;;;;;;;;;;;24.00;70.70;;;;;;5092956;28;19904;-37
2021/07/13 12:57:50;;;;;;;;;;;24.30;70.10;;;;;;5095360;28;20240;-38
2021/07/13 13:00:15;;;;;;;;;;;24.50;69.70;;;;;;5096809;28;19904;-38
2021/07/13 13:02:41;;;;;;;;;;;24.50;69.00;;;;;;5096602;28;19908;-37
2021/07/13 13:05:08;;;;;;;;;;;24.20;69.80;;;;;;5078604;28;19926;-38
2021/07/13 13:07:34;;;;;;;;;;;24.10;71.30;;;;;;5097172;28;19954;-36
2021/07/13 13:10:00;;;;;;;;;;;23.80;72.60;;;;;;5096225;28;19908;-39
2021/07/13 13:12:25;;;;;;;;;;;23.80;72.80;;;;;;5096364;28;19908;-38
2021/07/13 13:14:51;;;;;;;;;;;23.70;74.20;;;;;;5096733;28;19908;-38
2021/07/13 13:17:17;;;;;;;;;;;23.90;74.20;;;;;;5096077;28;20003;-40
2021/07/13 13:19:44;;;;;;;;;;;24.00;74.70;;;;;;5077864;28;19915;-38
2021/07/13 13:22:10;;;;;;;;;;;23.80;75.30;;;;;;5095906;28;19990;-38
2021/07/13 13:24:35;;;;;;;;;;;23.50;76.00;;;;;;5095882;28;19942;-37
2021/07/13 13:27:03;;;;;;;;;;;23.60;75.50;;;;;;5095889;28;19915;-37
2021/07/13 13:29:29;;;;;;;;;;;23.60;74.60;;;;;;5096273;28;19995;-38
2021/07/13 13:31:55;;;;;;;;;;;23.70;74.80;;;;;;5095860;28;20390;-37
2021/07/13 13:34:22;;;;;;;;;;;23.80;74.20;;;;;;5095959;28;19943;-37
2021/07/13 13:36:49;;;;;;;;;;;24.10;73.50;;;;;;5095818;28;19918;-36
2021/07/13 13:39:20;;;;;;;;;;;24.10;72.90;;;;;;5096018;28;19904;-38
2021/07/13 13:41:46;;;;;;;;;;;24.10;73.20;;;;;;5096235;28;20285;-37
2021/07/13 13:44:12;;;;;;;;;;;23.80;73.40;;;;;;5096054;28;19904;-37
2021/07/13 13:46:38;;;;;;;;;;;23.50;74.50;;;;;;5096091;28;19904;-39
2021/07/13 13:49:05;;;;;;;;;;;23.40;75.50;;;;;;5077617;28;19904;-37
2021/07/13 13:51:31;;;;;;;;;;;23.30;75.30;;;;;;5095465;28;19908;-38
2021/07/13 13:53:56;;;;;;;;;;;23.30;75.20;;;;;;5077230;28;19915;-37
2021/07/13 13:56:24;;;;;;;;;;;23.30;75.40;;;;;;5095615;28;20041;-37
2021/07/13 13:58:50;;;;;;;;;;;23.10;75.50;;;;;;5095898;28;19911;-37
2021/07/13 14:01:17;;;;;;;;;;;23.10;76.00;;;;;;5095221;28;19904;-38
2021/07/13 14:03:43;;;;;;;;;;;23.10;76.60;;;;;;5095525;28;20266;-37
2021/07/13 14:06:09;;;;;;;;;;;22.90;77.30;;;;;;5095359;28;19999;-38
2021/07/13 14:08:36;;;;;;;;;;;22.90;77.10;;;;;;5094834;28;20295;-38
2021/07/13 14:11:02;;;;;;;;;;;22.90;77.50;;;;;;5095238;28;19904;-37
2021/07/13 14:13:28;;;;;;;;;;;23.10;77.60;;;;;;5095019;28;19961;-38
2021/07/13 14:15:54;;;;;;;;;;;23.00;77.90;;;;;;5076947;28;19904;-37
2021/07/13 14:18:20;;;;;;;;;;;23.00;78.20;;;;;;5095574;28;19904;-37
2021/07/13 14:20:46;;;;;;;;;;;22.90;78.30;;;;;;5095316;28;19995;-37
2021/07/13 14:23:11;;;;;;;;;;;22.70;79.10;;;;;;5095380;28;20346;-37
2021/07/13 14:25:37;;;;;;;;;;;22.70;79.10;;;;;;5095099;28;19908;-37
2021/07/13 14:28:03;;;;;;;;;;;22.70;79.90;;;;;;5095103;28;19904;-37